Time;durP1;ratioP1;P1;durP2;ratioP2;P2;SDS_P1;SDS_P2;PMS_P1;PMS_P2;Temp;Humidity;BMP_temperature;BMP_pressure;BME280_temperature;BME280_humidity;BME280_pressure;Samples;Min_cycle;Max_cycle;Signal;HPM_P1;HPM_P2
2022/08/25 00:00:56;;;;;;;;;;;;;;;29.12;35.27;94280.66;4932135;29;7770;-61
2022/08/25 00:03:27;;;;;;;;;;;;;;;29.10;35.24;94275.69;4916433;29;9854;-61
2022/08/25 00:06:31;;;;;;;;;;;;;;;29.09;35.24;94285.25;4915652;29;9373;-61
2022/08/25 00:09:10;;;;;;;;;;;;;;;29.07;35.71;94274.72;4912977;29;7858;-61
2022/08/25 00:11:48;;;;;;;;;;;;;;;29.06;35.46;94273.22;4944940;28;7259;-61
2022/08/25 00:14:30;;;;;;;;;;;;;;;29.08;35.33;94269.91;4965166;28;9296;-61
2022/08/25 00:16:56;;;;;;;;;;;;;;;29.05;35.04;94265.47;4972090;28;7726;-61
2022/08/25 00:19:31;;;;;;;;;;;;;;;29.04;35.32;94270.25;4986180;28;7024;-61
2022/08/25 00:22:04;;;;;;;;;;;;;;;29.04;35.87;94264.72;4965542;28;7490;-61
2022/08/25 00:24:34;;;;;;;;;;;;;;;29.03;35.80;94268.78;4979650;28;7277;-61
2022/08/25 00:27:06;;;;;;;;;;;;;;;29.02;35.29;94261.72;4967870;28;7411;-61
2022/08/25 00:29:47;;;;;;;;;;;;;;;29.02;35.56;94261.72;4965798;28;10473;-61
2022/08/25 00:32:19;;;;;;;;;;;;;;;29.02;34.68;94267.28;4984712;28;7024;-61
2022/08/25 00:35:22;;;;;;;;;;;;;;;29.01;35.30;94265.75;4968188;28;10100;-61
2022/08/25 00:37:48;;;;;;;;;;;;;;;29.00;35.08;94264.28;4980918;28;7249;-61
2022/08/25 00:40:16;;;;;;;;;;;;;;;29.00;34.92;94272.59;4969184;28;7415;-61
2022/08/25 00:42:53;;;;;;;;;;;;;;;29.00;35.32;94269.84;4973026;28;7058;-61
2022/08/25 00:45:19;;;;;;;;;;;;;;;29.00;35.36;94274.63;4969358;28;9439;-61
2022/08/25 00:47:46;;;;;;;;;;;;;;;28.99;35.42;94273.16;4972468;28;7343;-61
2022/08/25 00:50:14;;;;;;;;;;;;;;;28.98;34.97;94272.41;4970923;28;7135;-61
2022/08/25 00:53:03;;;;;;;;;;;;;;;28.98;35.51;94271.66;4987684;28;7250;-61
2022/08/25 00:55:58;;;;;;;;;;;;;;;28.97;35.57;94270.91;4986991;28;7223;-61
2022/08/25 00:58:27;;;;;;;;;;;;;;;28.97;35.28;94273.66;4932395;29;9405;-61
2022/08/25 01:01:25;;;;;;;;;;;;;;;28.96;34.92;94268.66;4916148;29;7105;-61
2022/08/25 01:04:10;;;;;;;;;;;;;;;28.97;35.31;94270.16;4932399;29;7560;-61
2022/08/25 01:07:11;;;;;;;;;;;;;;;28.96;35.19;94269.41;4931364;29;7238;-61
2022/08/25 01:09:43;;;;;;;;;;;;;;;28.95;35.27;94276.22;4853396;29;8367;-61
2022/08/25 01:12:24;;;;;;;;;;;;;;;28.95;35.31;94272.72;4863671;29;7536;-61
2022/08/25 01:15:18;;;;;;;;;;;;;;;28.93;35.41;94270.47;4856499;29;7293;-61
2022/08/25 01:17:56;;;;;;;;;;;;;;;28.92;35.52;94276.56;4867891;29;9725;-61
2022/08/25 01:20:48;;;;;;;;;;;;;;;28.92;35.19;94273.78;4860152;29;6990;-61
2022/08/25 01:23:51;;;;;;;;;;;;;;;28.93;35.45;94280.81;4858404;29;7045;-61
2022/08/25 01:26:24;;;;;;;;;;;;;;;28.90;34.86;94285.41;4845888;29;8592;-61
2022/08/25 01:29:20;;;;;;;;;;;;;;;28.91;35.18;94277.84;4848823;29;9475;-61
2022/08/25 01:32:12;;;;;;;;;;;;;;;28.89;35.28;94270.06;4832513;29;7041;-61
2022/08/25 01:34:52;;;;;;;;;;;;;;;28.89;35.56;94278.38;4835669;29;9457;-61
2022/08/25 01:37:19;;;;;;;;;;;;;;;28.87;35.37;94274.66;4851108;29;6977;-61
2022/08/25 01:39:45;;;;;;;;;;;;;;;28.88;35.13;94274.09;4851265;29;9623;-61
2022/08/25 01:42:32;;;;;;;;;;;;;;;28.87;35.28;94278.16;4872791;29;7010;-61
2022/08/25 01:44:58;;;;;;;;;;;;;;;28.86;35.70;94273.91;4899290;29;7483;-61
2022/08/25 01:47:24;;;;;;;;;;;;;;;28.85;34.99;94269.66;4911126;29;7157;-61
2022/08/25 01:49:50;;;;;;;;;;;;;;;28.84;35.14;94262.63;4916223;29;7230;-61
2022/08/25 01:56:00;;;;;;;;;;;;;;;28.85;35.25;94268.91;4912093;29;7457;-61
2022/08/25 01:58:36;;;;;;;;;;;;;;;28.84;35.35;94270.91;4912174;29;7211;-61
2022/08/25 02:01:06;;;;;;;;;;;;;;;28.83;35.33;94277.75;4910198;29;7525;-61
2022/08/25 02:03:48;;;;;;;;;;;;;;;28.82;35.51;94270.72;4914898;29;7337;-61
2022/08/25 02:07:04;;;;;;;;;;;;;;;28.82;34.98;94269.97;4894186;29;8793;-61
2022/08/25 02:09:34;;;;;;;;;;;;;;;28.81;35.10;94274.78;4892059;29;7213;-61
2022/08/25 02:12:02;;;;;;;;;;;;;;;28.83;35.50;94271.47;4880856;29;7028;-61
2022/08/25 02:14:34;;;;;;;;;;;;;;;28.83;35.34;94277.00;4870907;29;7492;-61
2022/08/25 02:17:08;;;;;;;;;;;;;;;28.81;35.19;94280.31;4877428;29;7025;-61
2022/08/25 02:19:35;;;;;;;;;;;;;;;28.80;34.93;94284.34;4878156;29;7829;-61
2022/08/25 02:22:03;;;;;;;;;;;;;;;28.79;34.57;94274.56;4875488;29;7152;-61
2022/08/25 02:24:38;;;;;;;;;;;;;;;28.78;35.23;94275.84;4878479;29;7211;-61
2022/08/25 02:27:23;;;;;;;;;;;;;;;28.79;35.41;94271.06;4871609;29;7315;-61
2022/08/25 02:29:51;;;;;;;;;;;;;;;28.77;35.11;94274.38;4900008;28;7169;-61
2022/08/25 02:32:42;;;;;;;;;;;;;;;28.77;35.31;94268.81;4948215;28;7318;-61
2022/08/25 02:35:17;;;;;;;;;;;;;;;28.77;35.07;94270.84;4952223;28;7205;-61
2022/08/25 02:37:56;;;;;;;;;;;;;;;28.77;35.47;94262.53;4945709;28;7241;-61
2022/08/25 02:40:35;;;;;;;;;;;;;;;28.76;35.26;94266.56;4949995;28;7080;-61
2022/08/25 02:43:02;;;;;;;;;;;;;;;28.74;34.91;94264.34;4935917;28;8493;-61
2022/08/25 02:45:31;;;;;;;;;;;;;;;28.74;35.12;94264.34;4939880;28;7242;-61
2022/08/25 02:47:59;;;;;;;;;;;;;;;28.74;35.14;94263.59;4967190;28;7316;-61
2022/08/25 02:50:27;;;;;;;;;;;;;;;28.72;35.35;94261.38;4971115;28;7301;-61
2022/08/25 02:53:09;;;;;;;;;;;;;;;28.72;35.16;94260.63;4968447;28;9453;-61
2022/08/25 02:55:42;;;;;;;;;;;;;;;28.72;35.17;94266.16;4981758;28;7378;-61
2022/08/25 02:58:39;;;;;;;;;;;;;;;28.71;35.26;94259.88;4968163;28;9830;-61
2022/08/25 03:01:15;;;;;;;;;;;;;;;28.71;35.13;94254.34;4952652;28;7336;-61
2022/08/25 03:04:07;;;;;;;;;;;;;;;28.70;34.98;94258.41;4947911;28;9875;-61
2022/08/25 03:06:42;;;;;;;;;;;;;;;28.71;34.91;94259.88;4952237;28;7086;-61
2022/08/25 03:09:09;;;;;;;;;;;;;;;28.71;34.79;94259.88;4929335;28;7195;-62
2022/08/25 03:11:37;;;;;;;;;;;;;;;28.69;35.12;94258.91;4952235;28;7701;-62
2022/08/25 03:14:13;;;;;;;;;;;;;;;28.69;35.26;94262.44;4929132;29;7349;-61
2022/08/25 03:16:53;;;;;;;;;;;;;;;28.69;35.04;94267.22;4937079;28;7224;-62
2022/08/25 03:19:29;;;;;;;;;;;;;;;28.68;34.86;94272.03;4935688;28;7280;-61
2022/08/25 03:21:58;;;;;;;;;;;;;;;28.67;34.86;94267.00;4934743;28;7375;-61
2022/08/25 03:24:25;;;;;;;;;;;;;;;28.65;35.02;94273.09;4946646;28;7151;-62
2022/08/25 03:27:12;;;;;;;;;;;;;;;28.66;35.51;94271.81;4933886;28;9194;-61
2022/08/25 03:29:48;;;;;;;;;;;;;;;28.64;35.11;94271.63;4948151;28;7506;-61
2022/08/25 03:32:43;;;;;;;;;;;;;;;28.64;35.09;94271.63;4951395;28;6978;-61
2022/08/25 03:35:38;;;;;;;;;;;;;;;28.64;35.08;94266.06;4874259;29;7447;-62
2022/08/25 03:38:19;;;;;;;;;;;;;;;28.64;34.66;94273.63;4826481;29;11316;-61
2022/08/25 03:40:45;;;;;;;;;;;;;;;28.64;34.68;94271.63;4822051;29;7398;-61
2022/08/25 03:43:23;;;;;;;;;;;;;;;28.62;34.64;94265.88;4814617;29;7090;-61
2022/08/25 03:45:49;;;;;;;;;;;;;;;28.61;35.56;94264.38;4820493;29;7449;-61
2022/08/25 03:48:16;;;;;;;;;;;;;;;28.62;35.31;94260.34;4817263;29;7086;-61
2022/08/25 03:50:45;;;;;;;;;;;;;;;28.62;34.71;94265.88;4834382;29;7601;-61
2022/08/25 03:53:19;;;;;;;;;;;;;;;28.62;35.11;94265.13;4819751;29;7153;-61
2022/08/25 03:55:46;;;;;;;;;;;;;;;28.60;35.28;94265.63;4821375;29;8986;-61
2022/08/25 03:58:24;;;;;;;;;;;;;;;28.61;35.01;94261.59;4806588;29;7626;-61
2022/08/25 04:01:09;;;;;;;;;;;;;;;28.61;35.11;94255.31;4819969;29;7250;-61
2022/08/25 04:03:35;;;;;;;;;;;;;;;28.59;34.91;94255.09;4821215;29;7541;-62
2022/08/25 04:06:14;;;;;;;;;;;;;;;28.58;34.88;94262.66;4818802;29;9501;-61
2022/08/25 04:08:40;;;;;;;;;;;;;;;28.58;35.32;94261.94;4820919;29;7323;-61
2022/08/25 04:11:22;;;;;;;;;;;;;;;28.57;34.96;94255.66;4849657;29;7229;-61
2022/08/25 04:14:03;;;;;;;;;;;;;;;28.55;34.97;94263.72;4927551;28;6867;-61
2022/08/25 04:16:38;;;;;;;;;;;;;;;28.55;35.14;94260.94;4970607;28;7222;-61
2022/08/25 04:19:23;;;;;;;;;;;;;;;28.55;34.71;94260.94;4969552;28;7243;-61
2022/08/25 04:21:50;;;;;;;;;;;;;;;28.53;35.14;94260.72;4966910;28;7011;-61
2022/08/25 04:24:36;;;;;;;;;;;;;;;28.55;34.90;94260.19;4960426;28;6973;-61
2022/08/25 04:27:18;;;;;;;;;;;;;;;28.53;34.59;94260.72;4979045;28;7298;-61
2022/08/25 04:29:53;;;;;;;;;;;;;;;28.55;34.91;94260.19;4955408;28;7150;-62
2022/08/25 04:32:54;;;;;;;;;;;;;;;28.53;34.96;94259.97;4983853;28;7496;-61
2022/08/25 04:35:32;;;;;;;;;;;;;;;28.52;34.46;94258.47;4935042;28;8629;-61
2022/08/25 04:38:18;;;;;;;;;;;;;;;28.51;34.49;94257.75;4936963;28;7328;-61
2022/08/25 04:41:20;;;;;;;;;;;;;;;28.52;34.92;94264.00;4950260;28;7251;-61
2022/08/25 04:43:46;;;;;;;;;;;;;;;28.51;35.08;94263.28;4949897;28;8266;-61
2022/08/25 04:46:22;;;;;;;;;;;;;;;28.50;34.80;94261.78;4934112;28;7255;-61
2022/08/25 04:48:54;;;;;;;;;;;;;;;28.49;34.83;94257.56;4948827;28;7053;-61
2022/08/25 04:51:26;;;;;;;;;;;;;;;28.48;34.97;94252.53;4934265;28;7399;-61
2022/08/25 04:54:04;;;;;;;;;;;;;;;28.49;34.81;94249.25;4950374;28;7408;-61
2022/08/25 04:56:34;;;;;;;;;;;;;;;28.46;35.07;94250.31;4934129;28;7009;-61
2022/08/25 04:59:14;;;;;;;;;;;;;;;28.47;35.09;94249.00;4932198;28;7001;-60
2022/08/25 05:01:51;;;;;;;;;;;;;;;28.47;35.17;94251.78;4935149;28;7875;-60
2022/08/25 05:04:35;;;;;;;;;;;;;;;28.49;34.91;94254.78;4948061;28;6924;-61
2022/08/25 05:07:11;;;;;;;;;;;;;;;28.48;35.48;94253.28;4934620;28;7388;-61
2022/08/25 05:09:55;;;;;;;;;;;;;;;28.47;34.69;94237.94;4935179;28;7420;-61
2022/08/25 05:12:21;;;;;;;;;;;;;;;28.49;34.50;94246.47;4967009;28;7004;-61
2022/08/25 05:14:51;;;;;;;;;;;;;;;28.47;35.40;94248.28;4964968;28;7219;-61
2022/08/25 05:17:30;;;;;;;;;;;;;;;28.47;35.23;94256.59;4968121;28;8753;-61
2022/08/25 05:20:02;;;;;;;;;;;;;;;28.48;34.97;94256.03;4970681;28;7028;-61
2022/08/25 05:22:35;;;;;;;;;;;;;;;28.49;35.17;94259.56;4983139;28;7516;-61
2022/08/25 05:25:03;;;;;;;;;;;;;;;28.45;35.00;94250.84;4968346;28;7244;-61
2022/08/25 05:27:31;;;;;;;;;;;;;;;28.44;34.86;94252.88;4970637;28;7758;-61
2022/08/25 05:29:57;;;;;;;;;;;;;;;28.43;35.32;94248.59;4969798;28;7129;-61
2022/08/25 05:32:33;;;;;;;;;;;;;;;28.38;35.24;94243.94;4958872;28;7663;-61
2022/08/25 05:35:09;;;;;;;;;;;;;;;28.39;35.15;94242.63;4967796;28;7199;-61
2022/08/25 05:37:44;;;;;;;;;;;;;;;28.42;34.79;94238.81;4984680;28;9780;-61
2022/08/25 05:40:13;;;;;;;;;;;;;;;28.43;35.34;94245.81;4962456;28;7153;-61
2022/08/25 05:42:48;;;;;;;;;;;;;;;28.43;34.98;94237.53;4963836;28;8843;-61
2022/08/25 05:45:20;;;;;;;;;;;;;;;28.44;35.59;94241.78;4982245;28;7435;-61
2022/08/25 05:47:46;;;;;;;;;;;;;;;28.46;35.20;94241.25;4969351;28;7232;-61
2022/08/25 05:50:16;;;;;;;;;;;;;;;28.46;34.77;94244.03;4966520;28;7492;-61
2022/08/25 05:52:49;;;;;;;;;;;;;;;28.46;34.44;94244.78;4986228;28;7206;-61
2022/08/25 05:55:20;;;;;;;;;;;;;;;28.48;35.14;94247.75;4984199;28;7734;-60
2022/08/25 05:57:52;;;;;;;;;;;;;;;28.47;35.04;94246.25;4965461;28;7011;-61
2022/08/25 06:00:18;;;;;;;;;;;;;;;28.48;35.02;94239.44;4982138;28;7021;-61
2022/08/25 06:02:54;;;;;;;;;;;;;;;28.47;35.11;94235.19;4970852;28;7295;-61
2022/08/25 06:05:22;;;;;;;;;;;;;;;28.47;35.12;94234.44;4964133;28;7255;-61
2022/08/25 06:07:55;;;;;;;;;;;;;;;28.45;35.20;94232.19;4969727;28;7525;-61
2022/08/25 06:10:41;;;;;;;;;;;;;;;28.44;35.24;94216.16;4968068;28;7262;-61
2022/08/25 06:13:10;;;;;;;;;;;;;;;28.45;35.05;94228.72;4973353;28;7340;-61
2022/08/25 06:15:38;;;;;;;;;;;;;;;28.40;35.39;94224.03;4968185;28;7193;-61
2022/08/25 06:18:04;;;;;;;;;;;;;;;28.42;34.97;94232.53;4967805;28;10589;-61
2022/08/25 06:20:32;;;;;;;;;;;;;;;28.41;35.14;94231.78;4970046;28;9122;-61
2022/08/25 06:22:59;;;;;;;;;;;;;;;28.42;35.50;94227.75;4971081;28;7509;-61
2022/08/25 06:25:26;;;;;;;;;;;;;;;28.45;35.32;94223.19;4972156;28;7283;-61
2022/08/25 06:27:53;;;;;;;;;;;;;;;28.44;35.50;94227.22;4988925;28;10158;-61
2022/08/25 06:30:35;;;;;;;;;;;;;;;28.44;35.93;94224.44;4966991;28;8717;-61
2022/08/25 06:33:03;;;;;;;;;;;;;;;28.43;35.80;94226.47;4977603;28;7247;-62
2022/08/25 06:35:43;;;;;;;;;;;;;;;28.43;35.64;94225.72;4966467;28;8425;-62
2022/08/25 06:38:12;;;;;;;;;;;;;;;28.41;35.61;94219.97;4986181;28;7123;-62
2022/08/25 06:40:53;;;;;;;;;;;;;;;28.38;35.81;94221.81;4969132;28;7154;-62
2022/08/25 06:43:23;;;;;;;;;;;;;;;28.38;35.64;94222.53;4971441;28;7220;-62
2022/08/25 06:45:52;;;;;;;;;;;;;;;28.38;36.08;94221.81;4970957;28;7096;-62
2022/08/25 06:48:18;;;;;;;;;;;;;;;28.36;36.06;94213.28;4969712;28;9544;-62
2022/08/25 06:50:48;;;;;;;;;;;;;;;28.35;36.05;94217.31;4971441;28;6956;-62
2022/08/25 06:53:25;;;;;;;;;;;;;;;28.33;36.62;94215.09;4968535;28;7102;-62
2022/08/25 06:56:04;;;;;;;;;;;;;;;28.32;35.84;94215.63;4982907;28;6856;-62
2022/08/25 06:58:38;;;;;;;;;;;;;;;28.32;36.44;94210.84;4977982;28;7450;-62
2022/08/25 07:01:07;;;;;;;;;;;;;;;28.33;36.32;94214.34;4987519;28;7355;-62
2022/08/25 07:03:33;;;;;;;;;;;;;;;28.32;36.69;94207.31;4970871;28;7367;-62
2022/08/25 07:05:59;;;;;;;;;;;;;;;28.32;36.16;94223.91;4970551;28;8649;-62
2022/08/25 07:08:27;;;;;;;;;;;;;;;28.31;36.66;94225.94;4971273;28;7411;-62
2022/08/25 07:11:04;;;;;;;;;;;;;;;28.30;36.55;94223.69;4971846;28;9991;-62
2022/08/25 07:13:40;;;;;;;;;;;;;;;28.30;36.31;94223.69;4973931;28;6996;-62
2022/08/25 07:16:19;;;;;;;;;;;;;;;28.30;36.52;94220.94;4968889;28;7684;-62
2022/08/25 07:18:47;;;;;;;;;;;;;;;28.30;36.57;94218.16;4989051;28;7321;-62
2022/08/25 07:21:14;;;;;;;;;;;;;;;28.31;36.39;94225.19;4968892;28;7367;-62
2022/08/25 07:23:41;;;;;;;;;;;;;;;28.30;36.48;94220.94;4966820;28;8138;-62
2022/08/25 07:26:07;;;;;;;;;;;;;;;28.30;36.62;94220.94;4970424;28;7928;-62
2022/08/25 07:28:36;;;;;;;;;;;;;;;28.29;36.45;94225.75;4967287;28;8156;-62
2022/08/25 07:31:16;;;;;;;;;;;;;;;28.32;36.39;94223.91;4971136;28;7116;-62
2022/08/25 07:36:37;;;;;;;;;;;;;;;28.31;36.24;94220.41;4968647;28;9035;-63
2022/08/25 07:39:46;;;;;;;;;;;;;;;28.31;36.56;94225.94;4966113;28;7983;-62
2022/08/25 07:42:18;;;;;;;;;;;;;;;28.31;36.51;94217.66;4971294;28;7233;-62
2022/08/25 07:44:55;;;;;;;;;;;;;;;28.33;36.43;94225.41;4985393;28;7199;-62
2022/08/25 07:47:23;;;;;;;;;;;;;;;28.32;37.13;94229.44;4966032;28;6991;-62
2022/08/25 07:49:49;;;;;;;;;;;;;;;28.33;36.47;94230.94;4972386;28;7183;-62
2022/08/25 07:52:19;;;;;;;;;;;;;;;28.33;36.45;94228.19;4971077;28;7063;-62
2022/08/25 07:54:53;;;;;;;;;;;;;;;28.32;36.85;94229.44;4984430;28;7255;-62
2022/08/25 07:57:51;;;;;;;;;;;;;;;28.34;36.61;94218.59;4987024;28;7930;-62
2022/08/25 08:00:36;;;;;;;;;;;;;;;28.34;36.71;94221.34;4985144;28;7191;-63
2022/08/25 08:03:09;;;;;;;;;;;;;;;28.31;36.78;94223.19;4971394;28;7204;-62
2022/08/25 08:05:45;;;;;;;;;;;;;;;28.33;36.28;94228.94;4967316;28;7612;-62
2022/08/25 08:08:30;;;;;;;;;;;;;;;28.34;36.79;94221.34;4966074;28;9394;-62
2022/08/25 08:11:19;;;;;;;;;;;;;;;28.34;36.42;94221.34;4968380;28;9549;-62
2022/08/25 08:14:03;;;;;;;;;;;;;;;28.35;36.58;94225.63;4972326;28;7607;-62
2022/08/25 08:17:03;;;;;;;;;;;;;;;28.34;36.68;94233.16;4970112;28;7429;-62
2022/08/25 08:19:36;;;;;;;;;;;;;;;28.33;36.97;94236.47;4983068;28;7953;-62
2022/08/25 08:22:18;;;;;;;;;;;;;;;28.35;37.15;94233.91;4964960;28;7108;-62
2022/08/25 08:24:57;;;;;;;;;;;;;;;28.36;36.89;94230.63;4970472;28;9364;-62
2022/08/25 08:27:26;;;;;;;;;;;;;;;28.36;36.69;94235.44;4969946;28;7421;-62
2022/08/25 08:30:17;;;;;;;;;;;;;;;28.38;36.65;94234.88;4967304;28;7284;-62
2022/08/25 08:32:44;;;;;;;;;;;;;;;28.36;37.11;94233.38;4968530;28;7489;-62
2022/08/25 08:35:19;;;;;;;;;;;;;;;28.37;36.66;94231.38;4966803;28;9638;-61
2022/08/25 08:38:00;;;;;;;;;;;;;;;28.40;36.65;94237.84;4964894;28;7266;-62
2022/08/25 08:44:18;;;;;;;;;;;;;;;28.40;36.89;94238.59;4968467;28;7197;-62
2022/08/25 08:47:03;;;;;;;;;;;;;;;28.41;36.99;94242.09;4970466;28;7363;-62
2022/08/25 08:49:55;;;;;;;;;;;;;;;28.40;36.85;94241.38;4969100;28;7404;-62
2022/08/25 08:56:09;;;;;;;;;;;;;;;28.41;36.90;94248.38;4969782;28;9191;-61
2022/08/25 08:58:58;;;;;;;;;;;;;;;28.41;37.10;94258.69;4968060;28;9545;-62
2022/08/25 09:01:48;;;;;;;;;;;;;;;28.42;37.03;94255.41;4952524;28;7277;-62
2022/08/25 09:05:02;;;;;;;;;;;;;;;28.41;37.11;94247.63;4969445;28;7230;-63
2022/08/25 09:07:54;;;;;;;;;;;;;;;28.42;37.13;94244.34;4915158;29;6993;-62
2022/08/25 09:10:51;;;;;;;;;;;;;;;28.43;37.21;94247.88;4916041;29;10817;-62
2022/08/25 09:13:56;;;;;;;;;;;;;;;28.44;37.36;94252.09;4915895;29;7872;-62
2022/08/25 09:17:00;;;;;;;;;;;;;;;28.44;37.49;94250.09;4915918;29;7041;-62
2022/08/25 09:20:04;;;;;;;;;;;;;;;28.45;37.25;94250.84;4892521;29;7138;-62
2022/08/25 09:23:24;;;;;;;;;;;;;;;28.44;37.07;94257.66;4875654;29;7231;-62
2022/08/25 09:26:07;;;;;;;;;;;;;;;28.46;37.31;94246.78;4871755;29;8612;-62
2022/08/25 09:29:11;;;;;;;;;;;;;;;28.46;37.57;94255.84;4862684;29;8892;-62
2022/08/25 09:31:39;;;;;;;;;;;;;;;28.47;37.20;94254.53;4873965;29;7217;-62
2022/08/25 09:34:12;;;;;;;;;;;;;;;28.49;37.57;94257.56;4872795;29;10560;-62
2022/08/25 09:36:39;;;;;;;;;;;;;;;28.50;37.30;94256.25;4855385;29;7216;-62
2022/08/25 09:39:06;;;;;;;;;;;;;;;28.48;37.94;94258.81;4872014;29;7482;-62
2022/08/25 09:41:41;;;;;;;;;;;;;;;28.52;37.36;94256.47;4856334;29;9440;-62
2022/08/25 09:44:43;;;;;;;;;;;;;;;28.52;37.62;94259.22;4851971;29;7322;-62
2022/08/25 09:47:43;;;;;;;;;;;;;;;28.52;37.49;94258.47;4838525;29;7031;-62
2022/08/25 09:50:17;;;;;;;;;;;;;;;28.54;37.78;94255.91;4878461;29;8408;-62
2022/08/25 09:52:57;;;;;;;;;;;;;;;28.55;37.27;94252.63;4863225;29;7220;-62
2022/08/25 09:55:33;;;;;;;;;;;;;;;28.57;37.38;94250.13;4878560;29;8259;-62
2022/08/25 09:58:17;;;;;;;;;;;;;;;28.60;37.98;94248.31;4876717;29;7879;-62
2022/08/25 10:01:15;;;;;;;;;;;;;;;28.61;37.39;94250.53;4901224;28;6997;-62
2022/08/25 10:04:08;;;;;;;;;;;;;;;28.62;37.60;94245.75;4949526;28;7224;-62
2022/08/25 10:06:54;;;;;;;;;;;;;;;28.61;37.58;94245.00;4934118;28;7499;-62
2022/08/25 10:09:31;;;;;;;;;;;;;;;28.63;37.72;94242.44;4944852;28;8138;-62
2022/08/25 10:12:00;;;;;;;;;;;;;;;28.66;37.73;94240.63;4944619;28;6985;-62
2022/08/25 10:14:50;;;;;;;;;;;;;;;28.66;37.95;94244.16;4949659;28;7158;-62
2022/08/25 10:17:35;;;;;;;;;;;;;;;28.68;37.89;94238.81;4936384;28;7169;-62
2022/08/25 10:20:28;;;;;;;;;;;;;;;28.71;37.78;94231.47;4950366;28;7208;-62
2022/08/25 10:23:10;;;;;;;;;;;;;;;28.72;38.15;94228.16;4927060;28;7229;-62
2022/08/25 10:25:45;;;;;;;;;;;;;;;28.75;38.23;94226.34;4951867;28;7171;-62
2022/08/25 10:28:41;;;;;;;;;;;;;;;28.78;38.48;94223.25;4968764;28;9620;-62
2022/08/25 10:31:36;;;;;;;;;;;;;;;28.80;38.69;94222.69;4984147;28;8453;-62
2022/08/25 10:34:33;;;;;;;;;;;;;;;28.81;37.95;94219.41;4970533;28;7205;-62
2022/08/25 10:37:34;;;;;;;;;;;;;;;28.84;38.14;94220.38;4955472;28;7357;-62
2022/08/25 10:40:29;;;;;;;;;;;;;;;28.85;38.04;94216.31;4895060;29;9167;-62
2022/08/25 10:43:17;;;;;;;;;;;;;;;28.84;38.20;94207.25;4865366;29;7841;-62
2022/08/25 10:46:04;;;;;;;;;;;;;;;28.83;38.20;94210.56;4864871;29;8281;-62
2022/08/25 10:48:47;;;;;;;;;;;;;;;28.85;38.15;94205.97;4859403;29;7475;-62
2022/08/25 10:51:37;;;;;;;;;;;;;;;28.87;38.20;94206.19;4875711;29;7996;-63
2022/08/25 10:54:41;;;;;;;;;;;;;;;28.87;38.49;94195.09;4860619;29;9429;-62
2022/08/25 10:57:28;;;;;;;;;;;;;;;28.89;38.04;94192.53;4880333;29;6988;-62
2022/08/25 11:00:15;;;;;;;;;;;;;;;28.90;38.34;94194.03;4872826;29;7133;-62
2022/08/25 11:03:37;;;;;;;;;;;;;;;28.90;38.05;94194.03;4863000;29;7313;-62
2022/08/25 11:07:00;;;;;;;;;;;;;;;28.92;38.24;94194.25;4874626;29;7176;-62
2022/08/25 11:09:53;;;;;;;;;;;;;;;28.94;37.93;94191.69;4852380;29;7360;-62
2022/08/25 11:12:46;;;;;;;;;;;;;;;28.95;37.95;94192.41;4836605;29;9765;-62
2022/08/25 11:15:25;;;;;;;;;;;;;;;28.95;37.75;94193.16;4898071;29;7478;-62
2022/08/25 11:18:15;;;;;;;;;;;;;;;28.96;38.77;94191.88;5082269;27;7165;-61
2022/08/25 11:20:58;;;;;;;;;;;;;;;28.97;38.12;94187.81;5053462;28;7111;-61
2022/08/25 11:23:54;;;;;;;;;;;;;;;28.99;38.46;94181.78;5085272;28;9182;-60
2022/08/25 11:26:32;;;;;;;;;;;;;;;29.00;38.33;94186.75;5008042;28;7445;-61
2022/08/25 11:29:26;;;;;;;;;;;;;;;29.00;38.17;94181.22;4992615;28;7192;-61
2022/08/25 11:32:09;;;;;;;;;;;;;;;29.01;38.01;94182.69;5022132;28;7095;-61
2022/08/25 11:34:54;;;;;;;;;;;;;;;29.04;37.90;94180.88;5029098;28;8535;-61
2022/08/25 11:37:29;;;;;;;;;;;;;;;29.04;37.94;94170.56;5013439;28;9468;-61
2022/08/25 11:40:13;;;;;;;;;;;;;;;29.05;38.12;94172.06;5006298;28;7536;-61
2022/08/25 11:42:49;;;;;;;;;;;;;;;29.08;37.78;94170.94;4991077;28;7193;-61
2022/08/25 11:45:39;;;;;;;;;;;;;;;29.08;37.86;94173.72;5006066;28;9979;-60
2022/08/25 11:48:14;;;;;;;;;;;;;;;29.11;38.04;94171.91;5007042;28;7304;-60
2022/08/25 11:51:01;;;;;;;;;;;;;;;29.12;38.02;94170.63;5011039;28;6992;-60
2022/08/25 11:54:26;;;;;;;;;;;;;;;29.15;37.94;94168.78;5007133;28;7215;-60
2022/08/25 11:57:22;;;;;;;;;;;;;;;29.15;37.88;94163.25;5012354;28;7393;-61
2022/08/25 12:00:13;;;;;;;;;;;;;;;29.17;37.63;94166.28;5007227;28;8180;-61
2022/08/25 12:03:28;;;;;;;;;;;;;;;29.18;37.83;94167.75;5000956;28;9581;-61
2022/08/25 12:06:24;;;;;;;;;;;;;;;29.19;38.47;94161.66;5062266;28;7281;-61
2022/08/25 12:09:00;;;;;;;;;;;;;;;29.22;38.69;94170.94;5055275;28;7227;-61
2022/08/25 12:11:45;;;;;;;;;;;;;;;29.23;38.93;94164.13;5060508;28;7363;-61
2022/08/25 12:14:20;;;;;;;;;;;;;;;29.25;38.63;94161.53;5063913;28;8851;-61
2022/08/25 12:16:59;;;;;;;;;;;;;;;29.25;38.28;94159.53;5059609;28;7168;-61
2022/08/25 12:19:34;;;;;;;;;;;;;;;29.27;38.24;94156.19;5053284;28;7176;-61
2022/08/25 12:22:09;;;;;;;;;;;;;;;29.29;38.37;94156.41;5063510;28;7047;-61
2022/08/25 12:25:12;;;;;;;;;;;;;;;29.31;38.86;94165.66;5057989;28;7219;-61
2022/08/25 12:28:03;;;;;;;;;;;;;;;29.32;37.74;94160.88;5050763;28;7368;-61
2022/08/25 12:30:47;;;;;;;;;;;;;;;29.33;38.35;94159.56;5049033;28;7088;-61
2022/08/25 12:34:10;;;;;;;;;;;;;;;29.35;38.03;94165.31;5044601;28;7511;-61
2022/08/25 12:36:53;;;;;;;;;;;;;;;29.35;38.33;94163.28;5041936;28;9566;-61
2022/08/25 12:39:28;;;;;;;;;;;;;;;29.36;37.83;94162.00;5055851;28;7291;-61
2022/08/25 12:42:03;;;;;;;;;;;;;;;29.38;38.25;94153.16;5040990;28;7232;-61
2022/08/25 12:44:38;;;;;;;;;;;;;;;29.38;37.86;94155.94;5041639;28;7312;-61
2022/08/25 12:47:30;;;;;;;;;;;;;;;29.43;38.12;94155.03;5042491;28;7036;-61
2022/08/25 12:50:38;;;;;;;;;;;;;;;29.44;38.22;94151.00;5042075;28;7192;-60
2022/08/25 12:53:55;;;;;;;;;;;;;;;29.46;38.73;94153.97;5041042;28;7349;-61
2022/08/25 12:56:44;;;;;;;;;;;;;;;29.46;38.50;94142.88;5043751;28;7322;-61
2022/08/25 12:59:42;;;;;;;;;;;;;;;29.49;38.13;94150.13;5040633;28;7198;-61
2022/08/25 13:02:17;;;;;;;;;;;;;;;29.49;38.17;94142.53;5042865;28;7048;-60
2022/08/25 13:05:05;;;;;;;;;;;;;;;29.53;38.63;94144.97;5058801;28;7356;-61
2022/08/25 13:07:53;;;;;;;;;;;;;;;29.54;37.53;94143.66;5044581;28;7181;-60
2022/08/25 13:11:08;;;;;;;;;;;;;;;29.55;37.59;94143.13;5038943;28;7226;-61
2022/08/25 13:13:54;;;;;;;;;;;;;;;29.58;37.93;94144.09;4973411;28;7250;-61
2022/08/25 13:16:26;;;;;;;;;;;;;;;29.58;38.14;94144.09;4970975;28;9105;-63
2022/08/25 13:18:57;;;;;;;;;;;;;;;29.59;37.60;94137.25;4969479;28;9072;-61
2022/08/25 13:21:32;;;;;;;;;;;;;;;29.58;37.62;94130.94;4968162;28;7115;-62
2022/08/25 13:24:05;;;;;;;;;;;;;;;29.59;38.54;94135.22;4990479;28;8241;-63
2022/08/25 13:26:42;;;;;;;;;;;;;;;29.57;38.22;94131.50;4974146;28;7376;-62
2022/08/25 13:29:22;;;;;;;;;;;;;;;29.56;37.63;94121.69;4986961;28;7275;-62
2022/08/25 13:31:58;;;;;;;;;;;;;;;29.57;37.98;94120.41;4972360;28;9134;-62
2022/08/25 13:34:32;;;;;;;;;;;;;;;29.57;38.18;94125.97;4971207;28;7238;-63
2022/08/25 13:37:32;;;;;;;;;;;;;;;29.56;38.41;94127.97;4987293;28;7264;-62
2022/08/25 13:40:17;;;;;;;;;;;;;;;29.56;38.01;94119.66;4883283;29;7820;-63
2022/08/25 13:42:50;;;;;;;;;;;;;;;29.57;38.00;94120.41;4885443;29;7392;-62
2022/08/25 13:45:41;;;;;;;;;;;;;;;29.58;38.21;94111.56;4869004;29;7351;-63
2022/08/25 13:48:31;;;;;;;;;;;;;;;29.60;37.97;94108.25;4931496;28;7208;-62
2022/08/25 13:51:25;;;;;;;;;;;;;;;29.61;38.64;94109.72;4950730;28;7439;-63
2022/08/25 13:54:26;;;;;;;;;;;;;;;29.61;38.03;94113.25;4934326;28;7181;-63
2022/08/25 13:57:31;;;;;;;;;;;;;;;29.63;37.95;94107.16;4931311;28;7511;-63
2022/08/25 14:00:10;;;;;;;;;;;;;;;29.63;38.94;94101.59;4890567;29;7359;-63
2022/08/25 14:02:53;;;;;;;;;;;;;;;29.65;38.11;94104.56;4875565;29;8222;-63
2022/08/25 14:06:12;;;;;;;;;;;;;;;29.67;38.51;94099.97;4899631;29;9040;-62
2022/08/25 14:09:02;;;;;;;;;;;;;;;29.69;38.50;94093.88;4871812;29;7574;-62
2022/08/25 14:11:57;;;;;;;;;;;;;;;29.72;38.89;94092.78;4859789;29;7080;-61
2022/08/25 14:14:24;;;;;;;;;;;;;;;29.72;39.49;94099.09;4871484;29;7479;-62
2022/08/25 14:16:53;;;;;;;;;;;;;;;29.76;38.65;94096.00;4949039;28;7243;-62
2022/08/25 14:19:22;;;;;;;;;;;;;;;29.81;38.12;94092.31;4938168;28;7715;-62
2022/08/25 14:21:52;;;;;;;;;;;;;;;29.87;37.73;94087.38;4950913;28;7412;-62